Portada
METAR-TAF:

METAR-TAF

Aeroports :

Pavlodar, Kazakhstan

latitud: 52-11-42N, longitud: 077-04-26E, altitud: 125 m

Observació

L'informe es va fer fa 3 hores i 24 minuts, a les 09:30 UTC
Vent 6 kt del Nord/Nord-Oest
Temperatura 28°C
Humitat 32%
Pressió 1009 hPa
Visibilitat 10 km o més
Núvols disperses a una alçada de 4100 ft, Cumulonimbus.
Cel ennuvolat a una alçada de 10000 ft

METAR: UASP 070930Z 34003MPS 9999 SCT041CB BKN100 28/10 Q1009 R21/0///70 NOSIG RMK QFE745/0994

Hora: 18:54 (12:54 UTC)

Pronòstic

L'informe es va fer fa 1 hora i 54 minuts, a les 11:00 UTC
Pronòstic vàlid del 07 a les 12 UTC al 07 a les 21 UTC
Vent 12 kt del Nord/Nord-Oest amb ràfegues de 29 kt
Visibilitat: 3100 m
Cel ennuvolat a una alçada de 2000 ft, Cumulonimbus.
xàfecs de pluja
Temporalment
l' 07 a les 12 UTC al 07 a les 17 UTC
Vent 33 kt amb direcció variable
Visibilitat: 2000 m
tempesta, calamarsa, torbonada

TAF: UASP 071100Z 0712/0721 33006G15MPS 3100 -SHRA BKN020CB TEMPO 0712/0717 VRB17MPS 2000 TSGR SQ

Observacions i pronòstics meteorològics de més de 4000 aeroports (METAR i TAF).

Les estacions disponibles són els punts grocs i vermells al mapa.

Posi el ratolí al punt desitjat per veure el nom de l'estació.

Feu clic per veure les observacions i els pronòstics meteorològics.

Per canviar el mapa: feu clic els botons verds amb una creu de color negre per apropar; al botó verd amb un guió per allunyar la imatge; o en les fletxes verdes per a mapes adjacents.


METAR-TAF: